Station: Wellcamp Airport

  Atmospheric Gas Attenuation - ITU Rec 676-11   --------------- db/100km ---------------
Date Time Temp RH % AH g/m3 Dew Point Wind Direction Speed kph Gust kph Barometer mB Rainfall Since 9am 24GHz 47GHz 76GHz 122GHz 134GHz 241GHz
27 01:00 22.1 83 16.2 19.1 15 20 1009.5 0 35.3 36.0 66.7 176.2 189.7 658.3
27 00:50 22.2 83 16.29 19.3 19 20 1011.3 0 35.5 36.2 67.1 177.4 191.1 663.0
27 00:40 22.3 83 16.39 19.3 19 24 1011.2 0 35.7 36.3 67.5 178.3 192.3 667.3
27 00:30 22.3 83 16.39 19.3 17 24 1009.8 0 35.7 36.2 67.4 178.1 192.1 666.6
27 00:20 22.3 83 16.39 19.3 15 20 1011.3 0 35.7 36.3 67.5 178.4 192.3 667.3
27 00:10 22.4 82 16.28 19.3 15 17 1011.3 0 35.4 36.1 66.9 176.8 190.4 660.7
27 00:00 22.6 82 16.47 19.4 13 22 1009.7 0 35.8 36.3 67.5 178.4 192.5 668.1
26 23:50 22.7 81 16.36 19.3 9 9 1011.2 0 35.6 36.1 67.0 177.0 190.8 662.2
26 23:40 22.9 81 16.55 19.5 11 13 1011.2 0 36.0 36.3 67.7 178.9 193.1 670.3
26 23:30 23.1 81 16.74 19.7 17 22 1009.9 0 36.4 36.5 68.3 180.5 195.3 677.8
26 23:20 23.3 80 16.73 19.6 13 17 1011.4 0 36.3 36.5 68.2 180.2 194.8 676.2
26 23:10 23.4 80 16.82 19.7 17 19 1011.6 0 36.5 36.6 68.5 181.0 195.9 680.1
26 23:00 23.5 80 16.92 19.8 17 20 1010.4 0 36.7 36.7 68.8 181.8 197.0 683.8
26 22:50 23.6 79 16.8 19.8 15 17 1011.6 0 36.4 36.5 68.2 180.3 195.1 677.3
26 22:40 23.8 79 16.99 19.9 13 17 1011.8 0 36.8 36.8 68.9 182.2 197.4 685.4
26 22:30 24 78 16.97 19.9 11 15 1010.6 0 36.8 36.6 68.6 181.3 196.4 682.0
26 22:20 24.1 77 16.85 19.9 7 9 1011.6 0 36.5 36.4 68.0 179.7 194.6 675.4
26 22:10 24.3 76 16.82 19.9 9 11 1011.5 0 36.4 36.2 67.7 178.9 193.6 672.1
26 22:00 24.6 75 16.88 19.9 20 28 1010.2 0 36.5 36.2 67.6 178.7 193.5 671.9
26 21:50 25.1 73 16.9 19.9 22 24 1011.3 0 36.5 36.0 67.3 178.0 192.7 669.1
26 21:40 25.5 70 16.57 19.7 13 17 1011.1 0 35.8 35.3 65.5 173.1 186.9 648.9
26 21:30 25.6 69 16.43 19.5 17 24 1009.9 0 35.5 34.9 64.7 171.1 184.5 640.5
26 21:20 25.9 68 16.46 19.5 17 20 1010.7 0 35.5 34.9 64.7 170.9 184.3 639.9
26 21:10 26.1 67 16.4 19.5 13 19 1010.7 0 35.4 34.7 64.2 169.8 182.9 635.2
26 21:00 26.4 66 16.43 19.5 22 28 1009.8 0 35.4 34.6 64.1 169.3 182.5 633.8
26 20:50 26.7 64 16.2 19.5 19 22 1010.5 0 34.9 34.1 62.9 166.1 178.7 620.5
26 20:40 27 62 15.96 19.3 20 26 1010.5 0 34.4 33.6 61.6 162.8 174.6 606.4
26 20:30 27.2 59 15.35 18.5 15 22 1009.6 0 33.1 32.4 58.8 155.5 165.7 575.4
26 20:19 27.5 56 14.82 18 17 19 1009.9 0 31.9 31.5 56.5 149.1 158.0 548.6
26 20:10 27.5 55 14.55 17.7 15 20 1009.8 0 31.4 31.0 55.4 146.2 154.4 536.0
26 20:00 27.6 54 14.37 17.7 13 19 1009.2 0 31.0 30.7 54.5 144.0 151.8 526.9
26 19:50 27.6 54 14.37 17.6 15 19 1009.5 0 31.0 30.7 54.6 144.1 151.8 527.0
26 19:40 27.8 53 14.26 17.5 15 17 1009.4 0 30.7 30.4 54.0 142.5 150.0 520.6
26 19:30 27.8 52 13.99 17.3 15 19 1008.6 0 30.2 30.0 52.9 139.6 146.4 508.1
26 19:20 28 52 14.14 17.4 17 19 1008.9 0 30.5 30.2 53.3 140.8 148.0 513.7
26 19:10 28.2 51 14.02 17.3 19 20 1008.6 0 30.2 29.9 52.7 139.2 146.0 506.8
26 19:00 28.3 51 14.1 17.2 17 22 1007.9 0 30.4 30.0 52.9 139.8 146.8 509.5
26 18:50 28.5 49 13.7 17 15 19 1008.3 0 29.5 29.3 51.3 135.3 141.4 490.6
26 18:40 28.7 48 13.57 16.9 19 20 1008 0 29.2 29.0 50.6 133.6 139.3 483.5
26 18:30 29 48 13.79 16.9 20 26 1007.5 0 29.7 29.2 51.2 135.3 141.5 491.1
26 18:20 29.2 47 13.65 16.9 20 24 1007.7 0 29.4 28.9 50.6 133.5 139.4 483.8
26 18:10 29.5 46 13.58 16.9 19 24 1007.5 0 29.2 28.7 50.1 132.3 138.0 478.9
26 18:00 29.6 46 13.65 16.8 22 32 1007 0 29.3 28.8 50.3 132.8 138.6 481.2
26 17:50 29.9 45 13.58 16.8 22 24 1007 0 29.2 28.6 49.9 131.6 137.2 476.3
26 17:40 30.4 43 13.33 16.5 22 28 1006.9 0 28.6 28.0 48.6 128.3 133.3 462.6
26 17:30 30.8 42 13.3 16.4 24 35 1006.8 0 28.5 27.9 48.2 127.3 132.2 459.0
26 17:20 31.1 40 12.87 16 19 22 1006.7 0 27.6 27.1 46.5 122.6 126.6 439.2
26 17:10 31.5 39 12.82 16.1 24 26 1006.5 0 27.5 26.9 46.1 121.5 125.3 434.9
26 17:00 31.4 40 13.08 16.2 24 32 1006.6 0 28.0 27.4 47.1 124.2 128.6 446.3
26 16:50 31.6 38 12.56 15.6 26 30 1006.3 0 26.9 26.5 45.1 118.9 122.1 423.5
26 16:40 32.3 37 12.7 16 24 30 1006.1 0 27.2 26.5 45.2 119.1 122.6 425.5
26 16:30 31.6 37 12.23 15.5 20 32 1006.4 0 26.3 26.0 43.9 115.7 118.2 410.1
26 16:20 31.8 37 12.36 15.3 26 30 1005.9 0 26.5 26.2 44.2 116.6 119.4 414.2
26 16:10 32.3 36 12.35 15.6 17 19 1005.9 0 26.5 26.0 43.9 115.8 118.5 411.2
26 16:00 31.9 37 12.43 15.4 15 24 1006.2 0 26.7 26.2 44.4 117.2 120.1 416.6
26 15:50 32.1 38 12.9 16 17 20 1006 0 27.6 26.9 46.0 121.3 125.3 434.8
26 15:40 32.2 38 12.97 16.3 13 15 1006 0 27.8 26.9 46.2 121.9 125.9 437.1
26 15:30 32.1 40 13.58 16.8 13 20 1006.3 0 29.0 27.9 48.5 128.0 133.4 463.1
26 15:20 31.6 40 13.22 16.7 13 19 1006.3 0 28.3 27.5 47.5 125.2 129.9 450.9
26 15:10 31.3 41 13.34 16.6 7 9 1006.5 0 28.6 27.8 48.1 126.9 131.9 457.7
26 15:00 31.4 41 13.41 16.9 15 22 1006.7 0 28.7 27.8 48.3 127.4 132.6 460.2
26 14:50 31.4 41 13.41 16.8 15 19 1006.6 0 28.7 27.8 48.3 127.4 132.5 460.1
26 14:39 31.8 40 13.36 16.9 15 17 1006.8 0 28.6 27.7 47.9 126.3 131.3 455.8
26 14:30 32.7 38 13.32 16.9 11 19 1006.9 0 28.4 27.3 47.2 124.6 129.4 449.1
26 14:20 32.3 39 13.38 16.6 6 11 1006.9 0 28.6 27.5 47.7 125.8 130.7 453.8
26 14:10 32.1 41 13.92 17.3 13 19 1006.9 0 29.7 28.4 49.8 131.4 137.6 477.7
26 14:00 32.3 40 13.73 17 9 17 1007.3 0 29.3 28.1 48.9 129.2 135.0 468.6
26 13:50 32.1 39 13.24 16.5 4 6 1007.3 0 28.3 27.4 47.3 124.8 129.4 449.3
26 13:40 31.3 42 13.66 16.9 15 17 1007.6 0 29.2 28.3 49.3 130.2 135.9 471.7
26 13:30 31.4 41 13.41 16.9 6 13 1007.8 0 28.7 27.9 48.3 127.6 132.7 460.5
26 13:20 31 42 13.44 16.7 6 7 1008 0 28.8 28.1 48.7 128.5 133.7 464.2
26 13:10 30.2 44 13.49 16.8 9 11 1008.3 0 29.0 28.4 49.4 130.3 135.7 471.1
26 13:00 30.2 46 14.1 17.3 7 15 1008.3 0 30.2 29.3 51.7 136.5 143.3 497.6
26 12:50 29.9 45 13.58 17 6 7 1008.6 0 29.2 28.6 49.9 131.8 137.4 476.9
26 12:40 29.7 46 13.73 17 4 6 1008.7 0 29.5 28.9 50.6 133.6 139.6 484.7
26 12:30 30.3 44 13.56 17 11 17 1008.6 0 29.1 28.5 49.6 130.9 136.5 473.6
26 12:20 30.5 44 13.71 17 11 15 1008.7 0 29.4 28.7 50.1 132.1 138.0 479.0
26 12:10 30.7 44 13.86 17.3 2 2 1008.9 0 29.7 28.8 50.5 133.3 139.5 484.3
26 12:00 29.2 48 13.94 17.1 4 7 1009 0 30.0 29.4 51.8 136.7 143.2 497.1
26 11:50 29.2 48 13.94 17.2 7 9 1009.5 0 30.0 29.5 51.8 136.7 143.3 497.3
26 11:40 29 48 13.79 17.1 4 6 1009.6 0 29.7 29.3 51.4 135.5 141.7 491.9
26 11:30 29.4 47 13.8 17.2 6 13 1009.4 0 29.7 29.2 51.1 134.9 141.1 489.8
26 11:20 30.3 46 14.18 17.6 11 13 1009.6 0 30.4 29.5 52.0 137.3 144.3 501.0
26 11:10 29.9 46 13.88 17.2 9 13 1009.8 0 29.8 29.1 51.1 135.0 141.3 490.4
26 11:00 29 49 14.08 17.5 6 9 1009.6 0 30.3 29.8 52.5 138.5 145.4 504.8
26 10:50 28.5 51 14.26 17.4 9 13 1010.2 0 30.7 30.2 53.5 141.4 148.7 516.3
26 10:40 29.5 48 14.17 17.5 11 13 1010.2 0 30.4 29.7 52.5 138.7 145.7 505.8
26 10:30 29.6 50 14.84 18.1 6 11 1010.2 0 31.8 30.8 55.1 145.5 154.1 535.1
26 10:20 28.9 49 14 17.4 7 11 1010.5 0 30.1 29.7 52.3 138.0 144.7 502.2
26 10:10 28.2 52 14.3 17.5 6 7 1010.7 0 30.8 30.4 53.9 142.4 149.9 520.3
26 10:00 28 51 13.87 16.9 11 19 1010.2 0 29.9 29.8 52.3 138.2 144.7 502.0
26 09:50 27.9 52 14.06 17.4 9 13 1010.7 0 30.3 30.1 53.2 140.4 147.3 511.4
26 09:40 27.4 54 14.21 17.5 13 17 1010.7 0 30.6 30.5 54.1 142.9 150.3 521.5
26 09:30 27.3 55 14.39 17.5 9 19 1010.3 0 31.0 30.9 54.9 144.9 152.8 530.2
26 09:20 26.9 55 14.08 17.3 6 9 1011 0 30.4 30.5 54.0 142.4 149.6 519.0
26 09:10 26.5 57 14.27 17.4 6 7 1011.2 0 30.8 31.0 55.0 145.2 152.9 530.5
26 09:00 26.6 58 14.6 17.7 7 17 1010.4 0 31.5 31.5 56.2 148.5 157.0 544.8
26 08:50 25.9 63 15.25 18.4 15 17 1011.2 0 32.9 32.8 59.5 157.2 167.4 581.0
26 08:40 24.6 66 14.85 18 7 11 1011.5 0 32.2 32.7 58.8 155.3 164.7 571.5
26 08:30 24.9 67 15.34 18.4 11 19 1010.5 0 33.2 33.3 60.6 160.1 170.7 592.6

Last Refresh: 27-Feb-2021 01:45:30

Most of the information presented on this site is sourced from the Bureau of Meteorology.  Copyright in all material sourced from the Bureau of Meteorology resides with the Commonwealth of Australia.